sensor_id;sensor_type;location;lat;lon;timestamp;P1;durP1;ratioP1;P2;durP2;ratioP2
53833;SDS011;39735;51.432;5.482;2022-07-18T00:01:39;4.97;;;2.47;;
53833;SDS011;39735;51.432;5.482;2022-07-18T00:04:04;13.48;;;3.13;;
53833;SDS011;39735;51.432;5.482;2022-07-18T00:06:30;23.95;;;3.15;;
53833;SDS011;39735;51.432;5.482;2022-07-18T00:08:55;20.33;;;2.45;;
53833;SDS011;39735;51.432;5.482;2022-07-18T00:11:21;13.02;;;2.22;;
53833;SDS011;39735;51.432;5.482;2022-07-18T00:13:46;8.25;;;3.03;;
53833;SDS011;39735;51.432;5.482;2022-07-18T00:16:12;10.88;;;2.10;;
53833;SDS011;39735;51.432;5.482;2022-07-18T00:18:38;29.45;;;2.95;;
53833;SDS011;39735;51.432;5.482;2022-07-18T00:21:03;16.58;;;2.30;;
53833;SDS011;39735;51.432;5.482;2022-07-18T00:23:29;15.88;;;5.57;;
53833;SDS011;39735;51.432;5.482;2022-07-18T00:25:54;6.85;;;3.38;;
53833;SDS011;39735;51.432;5.482;2022-07-18T00:28:19;5.50;;;2.22;;
53833;SDS011;39735;51.432;5.482;2022-07-18T00:30:45;2.92;;;1.80;;
53833;SDS011;39735;51.432;5.482;2022-07-18T00:33:10;10.85;;;2.78;;
53833;SDS011;39735;51.432;5.482;2022-07-18T00:35:36;6.95;;;2.70;;
53833;SDS011;39735;51.432;5.482;2022-07-18T00:38:01;7.13;;;2.15;;
53833;SDS011;39735;51.432;5.482;2022-07-18T00:40:27;12.48;;;2.50;;
53833;SDS011;39735;51.432;5.482;2022-07-18T00:42:53;32.95;;;6.25;;
53833;SDS011;39735;51.432;5.482;2022-07-18T00:45:19;15.75;;;2.58;;
53833;SDS011;39735;51.432;5.482;2022-07-18T00:47:44;7.90;;;2.45;;
53833;SDS011;39735;51.432;5.482;2022-07-18T00:50:10;11.52;;;2.30;;
53833;SDS011;39735;51.432;5.482;2022-07-18T00:52:36;20.60;;;3.40;;
53833;SDS011;39735;51.432;5.482;2022-07-18T00:55:05;11.10;;;2.67;;
53833;SDS011;39735;51.432;5.482;2022-07-18T00:57:31;31.08;;;3.00;;
53833;SDS011;39735;51.432;5.482;2022-07-18T00:59:56;2.35;;;2.25;;
53833;SDS011;39735;51.432;5.482;2022-07-18T01:02:40;7.65;;;3.78;;
53833;SDS011;39735;51.432;5.482;2022-07-18T01:05:06;7.75;;;4.20;;
53833;SDS011;39735;51.432;5.482;2022-07-18T01:07:33;5.95;;;2.92;;
53833;SDS011;39735;51.432;5.482;2022-07-18T01:09:59;4.28;;;2.38;;
53833;SDS011;39735;51.432;5.482;2022-07-18T01:12:25;18.45;;;2.95;;
53833;SDS011;39735;51.432;5.482;2022-07-18T01:14:51;9.57;;;2.33;;
53833;SDS011;39735;51.432;5.482;2022-07-18T01:17:17;4.95;;;2.75;;
53833;SDS011;39735;51.432;5.482;2022-07-18T01:19:44;11.98;;;2.63;;
53833;SDS011;39735;51.432;5.482;2022-07-18T01:22:10;14.55;;;2.95;;
53833;SDS011;39735;51.432;5.482;2022-07-18T01:24:36;15.68;;;2.45;;
53833;SDS011;39735;51.432;5.482;2022-07-18T01:27:02;12.88;;;2.97;;
53833;SDS011;39735;51.432;5.482;2022-07-18T01:29:28;14.98;;;4.45;;
53833;SDS011;39735;51.432;5.482;2022-07-18T01:31:53;5.80;;;2.95;;
53833;SDS011;39735;51.432;5.482;2022-07-18T01:34:22;14.18;;;3.20;;
53833;SDS011;39735;51.432;5.482;2022-07-18T01:36:47;8.43;;;4.32;;
53833;SDS011;39735;51.432;5.482;2022-07-18T01:39:13;20.92;;;3.65;;
53833;SDS011;39735;51.432;5.482;2022-07-18T01:41:39;12.98;;;3.20;;
53833;SDS011;39735;51.432;5.482;2022-07-18T01:44:05;12.07;;;3.65;;
53833;SDS011;39735;51.432;5.482;2022-07-18T01:46:31;3.65;;;2.70;;
53833;SDS011;39735;51.432;5.482;2022-07-18T01:48:56;7.63;;;3.67;;
53833;SDS011;39735;51.432;5.482;2022-07-18T01:51:21;9.30;;;3.85;;
53833;SDS011;39735;51.432;5.482;2022-07-18T01:53:53;6.50;;;2.50;;
53833;SDS011;39735;51.432;5.482;2022-07-18T01:56:20;6.57;;;3.00;;
53833;SDS011;39735;51.432;5.482;2022-07-18T01:58:46;13.05;;;3.85;;
53833;SDS011;39735;51.432;5.482;2022-07-18T02:01:11;6.50;;;3.05;;
53833;SDS011;39735;51.432;5.482;2022-07-18T02:03:37;8.45;;;4.28;;
53833;SDS011;39735;51.432;5.482;2022-07-18T02:06:02;8.40;;;4.03;;
53833;SDS011;39735;51.432;5.482;2022-07-18T02:08:28;10.25;;;4.03;;
53833;SDS011;39735;51.432;5.482;2022-07-18T02:10:53;19.23;;;6.38;;
53833;SDS011;39735;51.432;5.482;2022-07-18T02:13:18;32.75;;;6.18;;
53833;SDS011;39735;51.432;5.482;2022-07-18T02:15:45;19.08;;;4.82;;
53833;SDS011;39735;51.432;5.482;2022-07-18T02:18:11;15.52;;;3.67;;
53833;SDS011;39735;51.432;5.482;2022-07-18T02:20:36;8.20;;;4.10;;
53833;SDS011;39735;51.432;5.482;2022-07-18T02:23:03;8.65;;;3.58;;
53833;SDS011;39735;51.432;5.482;2022-07-18T02:25:29;13.50;;;4.72;;
53833;SDS011;39735;51.432;5.482;2022-07-18T02:27:54;21.15;;;4.07;;
53833;SDS011;39735;51.432;5.482;2022-07-18T02:30:19;9.43;;;3.88;;
53833;SDS011;39735;51.432;5.482;2022-07-18T02:32:45;11.82;;;4.03;;
53833;SDS011;39735;51.432;5.482;2022-07-18T02:35:10;12.45;;;4.82;;
53833;SDS011;39735;51.432;5.482;2022-07-18T02:37:36;8.27;;;3.55;;
53833;SDS011;39735;51.432;5.482;2022-07-18T02:40:03;11.63;;;3.42;;
53833;SDS011;39735;51.432;5.482;2022-07-18T02:42:31;20.38;;;4.72;;
53833;SDS011;39735;51.432;5.482;2022-07-18T02:44:56;15.15;;;3.63;;
53833;SDS011;39735;51.432;5.482;2022-07-18T02:47:21;17.20;;;3.30;;
53833;SDS011;39735;51.432;5.482;2022-07-18T02:49:47;19.95;;;5.43;;
53833;SDS011;39735;51.432;5.482;2022-07-18T02:52:12;6.05;;;3.40;;
53833;SDS011;39735;51.432;5.482;2022-07-18T02:54:38;15.60;;;3.70;;
53833;SDS011;39735;51.432;5.482;2022-07-18T02:57:03;11.30;;;4.13;;
53833;SDS011;39735;51.432;5.482;2022-07-18T02:59:29;22.10;;;4.40;;
53833;SDS011;39735;51.432;5.482;2022-07-18T03:01:55;18.67;;;5.13;;
53833;SDS011;39735;51.432;5.482;2022-07-18T03:04:21;14.90;;;4.30;;
53833;SDS011;39735;51.432;5.482;2022-07-18T03:06:46;6.57;;;3.13;;
53833;SDS011;39735;51.432;5.482;2022-07-18T03:09:12;18.77;;;3.58;;
53833;SDS011;39735;51.432;5.482;2022-07-18T03:11:38;8.20;;;3.35;;
53833;SDS011;39735;51.432;5.482;2022-07-18T03:14:04;9.23;;;3.60;;
53833;SDS011;39735;51.432;5.482;2022-07-18T03:16:30;12.15;;;4.22;;
53833;SDS011;39735;51.432;5.482;2022-07-18T03:18:55;14.38;;;5.13;;
53833;SDS011;39735;51.432;5.482;2022-07-18T03:21:21;12.38;;;4.45;;
53833;SDS011;39735;51.432;5.482;2022-07-18T03:23:46;8.48;;;4.13;;
53833;SDS011;39735;51.432;5.482;2022-07-18T03:26:11;3.30;;;2.47;;
53833;SDS011;39735;51.432;5.482;2022-07-18T03:28:37;7.40;;;4.90;;
53833;SDS011;39735;51.432;5.482;2022-07-18T03:31:02;12.93;;;3.22;;
53833;SDS011;39735;51.432;5.482;2022-07-18T03:33:28;20.67;;;6.97;;
53833;SDS011;39735;51.432;5.482;2022-07-18T03:35:54;21.17;;;3.75;;
53833;SDS011;39735;51.432;5.482;2022-07-18T03:38:19;33.97;;;3.75;;
53833;SDS011;39735;51.432;5.482;2022-07-18T03:40:44;6.57;;;3.38;;
53833;SDS011;39735;51.432;5.482;2022-07-18T03:43:10;12.38;;;4.13;;
53833;SDS011;39735;51.432;5.482;2022-07-18T03:45:35;5.63;;;2.70;;
53833;SDS011;39735;51.432;5.482;2022-07-18T03:48:01;5.10;;;3.25;;
53833;SDS011;39735;51.432;5.482;2022-07-18T03:50:26;5.05;;;3.42;;
53833;SDS011;39735;51.432;5.482;2022-07-18T03:52:52;10.90;;;3.28;;
53833;SDS011;39735;51.432;5.482;2022-07-18T03:55:18;15.57;;;4.15;;
53833;SDS011;39735;51.432;5.482;2022-07-18T03:57:44;6.97;;;5.00;;
53833;SDS011;39735;51.432;5.482;2022-07-18T04:00:09;10.07;;;3.30;;
53833;SDS011;39735;51.432;5.482;2022-07-18T04:02:42;23.77;;;4.43;;
53833;SDS011;39735;51.432;5.482;2022-07-18T04:05:08;12.60;;;4.07;;
53833;SDS011;39735;51.432;5.482;2022-07-18T04:07:34;12.75;;;6.07;;
53833;SDS011;39735;51.432;5.482;2022-07-18T04:10:00;23.00;;;5.45;;
53833;SDS011;39735;51.432;5.482;2022-07-18T04:12:25;12.20;;;4.55;;
53833;SDS011;39735;51.432;5.482;2022-07-18T04:14:51;20.67;;;5.60;;
53833;SDS011;39735;51.432;5.482;2022-07-18T04:17:16;20.30;;;5.63;;
53833;SDS011;39735;51.432;5.482;2022-07-18T04:19:41;26.55;;;9.55;;
53833;SDS011;39735;51.432;5.482;2022-07-18T04:22:07;6.70;;;4.22;;
53833;SDS011;39735;51.432;5.482;2022-07-18T04:24:33;14.20;;;4.95;;
53833;SDS011;39735;51.432;5.482;2022-07-18T04:26:58;9.07;;;3.03;;
53833;SDS011;39735;51.432;5.482;2022-07-18T04:29:23;22.25;;;5.18;;
53833;SDS011;39735;51.432;5.482;2022-07-18T04:31:49;21.42;;;6.45;;
53833;SDS011;39735;51.432;5.482;2022-07-18T04:34:14;9.65;;;5.45;;
53833;SDS011;39735;51.432;5.482;2022-07-18T04:36:40;16.67;;;4.63;;
53833;SDS011;39735;51.432;5.482;2022-07-18T04:39:05;10.50;;;4.43;;
53833;SDS011;39735;51.432;5.482;2022-07-18T04:41:30;18.02;;;5.25;;
53833;SDS011;39735;51.432;5.482;2022-07-18T04:43:56;7.63;;;4.65;;
53833;SDS011;39735;51.432;5.482;2022-07-18T04:46:21;7.57;;;4.05;;
53833;SDS011;39735;51.432;5.482;2022-07-18T04:48:47;14.68;;;3.65;;
53833;SDS011;39735;51.432;5.482;2022-07-18T04:51:12;13.50;;;4.70;;
53833;SDS011;39735;51.432;5.482;2022-07-18T04:53:38;15.50;;;5.22;;
53833;SDS011;39735;51.432;5.482;2022-07-18T04:56:03;20.75;;;4.78;;
53833;SDS011;39735;51.432;5.482;2022-07-18T04:58:29;19.67;;;4.63;;
53833;SDS011;39735;51.432;5.482;2022-07-18T05:00:54;11.18;;;6.53;;
53833;SDS011;39735;51.432;5.482;2022-07-18T05:03:20;19.52;;;4.20;;
53833;SDS011;39735;51.432;5.482;2022-07-18T05:05:46;20.50;;;5.13;;
53833;SDS011;39735;51.432;5.482;2022-07-18T05:08:11;7.43;;;5.20;;
53833;SDS011;39735;51.432;5.482;2022-07-18T05:10:38;16.65;;;5.18;;
53833;SDS011;39735;51.432;5.482;2022-07-18T05:13:04;12.23;;;4.13;;
53833;SDS011;39735;51.432;5.482;2022-07-18T05:15:30;10.88;;;5.95;;
53833;SDS011;39735;51.432;5.482;2022-07-18T05:17:55;23.75;;;6.25;;
53833;SDS011;39735;51.432;5.482;2022-07-18T05:20:22;9.60;;;5.43;;
53833;SDS011;39735;51.432;5.482;2022-07-18T05:22:48;12.07;;;4.70;;
53833;SDS011;39735;51.432;5.482;2022-07-18T05:25:14;14.15;;;5.25;;
53833;SDS011;39735;51.432;5.482;2022-07-18T05:27:40;10.25;;;4.50;;
53833;SDS011;39735;51.432;5.482;2022-07-18T05:30:06;18.75;;;5.15;;
53833;SDS011;39735;51.432;5.482;2022-07-18T05:32:34;7.80;;;4.70;;
53833;SDS011;39735;51.432;5.482;2022-07-18T05:35:00;19.27;;;4.68;;
53833;SDS011;39735;51.432;5.482;2022-07-18T05:37:25;8.45;;;6.22;;
53833;SDS011;39735;51.432;5.482;2022-07-18T05:39:51;17.83;;;5.25;;
53833;SDS011;39735;51.432;5.482;2022-07-18T05:42:16;20.85;;;4.82;;
53833;SDS011;39735;51.432;5.482;2022-07-18T05:44:42;16.20;;;5.72;;
53833;SDS011;39735;51.432;5.482;2022-07-18T05:47:08;33.92;;;7.55;;
53833;SDS011;39735;51.432;5.482;2022-07-18T05:49:33;10.80;;;5.15;;
53833;SDS011;39735;51.432;5.482;2022-07-18T05:51:59;14.77;;;6.07;;
53833;SDS011;39735;51.432;5.482;2022-07-18T05:54:24;40.13;;;13.40;;
53833;SDS011;39735;51.432;5.482;2022-07-18T05:56:50;16.00;;;5.72;;
53833;SDS011;39735;51.432;5.482;2022-07-18T05:59:16;14.93;;;5.88;;
53833;SDS011;39735;51.432;5.482;2022-07-18T06:01:42;11.27;;;5.95;;
53833;SDS011;39735;51.432;5.482;2022-07-18T06:04:08;27.83;;;4.85;;
53833;SDS011;39735;51.432;5.482;2022-07-18T06:06:34;14.02;;;6.20;;
53833;SDS011;39735;51.432;5.482;2022-07-18T06:08:59;10.98;;;5.53;;
53833;SDS011;39735;51.432;5.482;2022-07-18T06:11:25;16.25;;;5.75;;
53833;SDS011;39735;51.432;5.482;2022-07-18T06:13:50;16.73;;;6.47;;
53833;SDS011;39735;51.432;5.482;2022-07-18T06:16:15;26.95;;;7.43;;
53833;SDS011;39735;51.432;5.482;2022-07-18T06:18:41;37.08;;;7.45;;
53833;SDS011;39735;51.432;5.482;2022-07-18T06:21:06;15.05;;;6.72;;
53833;SDS011;39735;51.432;5.482;2022-07-18T06:23:31;16.98;;;6.15;;
53833;SDS011;39735;51.432;5.482;2022-07-18T06:25:57;24.25;;;6.70;;
53833;SDS011;39735;51.432;5.482;2022-07-18T06:28:24;10.60;;;6.05;;
53833;SDS011;39735;51.432;5.482;2022-07-18T06:30:53;20.98;;;6.38;;
53833;SDS011;39735;51.432;5.482;2022-07-18T06:33:19;18.08;;;5.88;;
53833;SDS011;39735;51.432;5.482;2022-07-18T06:35:45;36.85;;;5.78;;
53833;SDS011;39735;51.432;5.482;2022-07-18T06:38:11;34.72;;;6.00;;
53833;SDS011;39735;51.432;5.482;2022-07-18T06:40:38;22.67;;;4.65;;
53833;SDS011;39735;51.432;5.482;2022-07-18T06:43:03;10.35;;;5.57;;
53833;SDS011;39735;51.432;5.482;2022-07-18T06:45:28;29.25;;;7.65;;
53833;SDS011;39735;51.432;5.482;2022-07-18T06:47:54;18.02;;;5.90;;
53833;SDS011;39735;51.432;5.482;2022-07-18T06:50:19;16.70;;;6.75;;
53833;SDS011;39735;51.432;5.482;2022-07-18T06:52:45;19.15;;;5.82;;
53833;SDS011;39735;51.432;5.482;2022-07-18T06:55:11;9.68;;;5.05;;
53833;SDS011;39735;51.432;5.482;2022-07-18T06:57:37;37.53;;;6.43;;
53833;SDS011;39735;51.432;5.482;2022-07-18T07:00:04;29.58;;;7.78;;
53833;SDS011;39735;51.432;5.482;2022-07-18T07:02:31;18.90;;;4.55;;
53833;SDS011;39735;51.432;5.482;2022-07-18T07:04:56;20.00;;;4.90;;
53833;SDS011;39735;51.432;5.482;2022-07-18T07:07:21;20.23;;;4.80;;
53833;SDS011;39735;51.432;5.482;2022-07-18T07:09:47;9.40;;;4.03;;
53833;SDS011;39735;51.432;5.482;2022-07-18T07:12:12;13.40;;;4.55;;
53833;SDS011;39735;51.432;5.482;2022-07-18T07:14:37;12.90;;;3.05;;
53833;SDS011;39735;51.432;5.482;2022-07-18T07:17:04;18.80;;;3.08;;
53833;SDS011;39735;51.432;5.482;2022-07-18T07:19:30;16.45;;;3.78;;
53833;SDS011;39735;51.432;5.482;2022-07-18T07:21:55;5.60;;;2.70;;
53833;SDS011;39735;51.432;5.482;2022-07-18T07:24:21;25.38;;;2.55;;
53833;SDS011;39735;51.432;5.482;2022-07-18T07:26:46;15.77;;;2.35;;
53833;SDS011;39735;51.432;5.482;2022-07-18T07:29:12;22.98;;;2.65;;
53833;SDS011;39735;51.432;5.482;2022-07-18T07:31:37;5.78;;;2.55;;
53833;SDS011;39735;51.432;5.482;2022-07-18T07:34:02;11.93;;;2.63;;
53833;SDS011;39735;51.432;5.482;2022-07-18T07:36:28;13.38;;;3.60;;
53833;SDS011;39735;51.432;5.482;2022-07-18T07:38:53;11.93;;;2.60;;
53833;SDS011;39735;51.432;5.482;2022-07-18T07:41:19;6.10;;;3.15;;
53833;SDS011;39735;51.432;5.482;2022-07-18T07:43:44;9.35;;;3.58;;
53833;SDS011;39735;51.432;5.482;2022-07-18T07:46:09;6.65;;;2.83;;
53833;SDS011;39735;51.432;5.482;2022-07-18T07:48:36;35.03;;;3.13;;
53833;SDS011;39735;51.432;5.482;2022-07-18T07:51:02;13.00;;;2.85;;
53833;SDS011;39735;51.432;5.482;2022-07-18T07:53:28;8.45;;;3.03;;
53833;SDS011;39735;51.432;5.482;2022-07-18T07:55:55;3.40;;;2.25;;
53833;SDS011;39735;51.432;5.482;2022-07-18T07:58:20;8.85;;;3.10;;
53833;SDS011;39735;51.432;5.482;2022-07-18T08:00:45;2.20;;;2.00;;
53833;SDS011;39735;51.432;5.482;2022-07-18T08:03:11;10.48;;;3.33;;
53833;SDS011;39735;51.432;5.482;2022-07-18T08:05:37;11.50;;;2.13;;
53833;SDS011;39735;51.432;5.482;2022-07-18T08:08:08;3.33;;;2.58;;
53833;SDS011;39735;51.432;5.482;2022-07-18T08:10:33;10.65;;;2.00;;
53833;SDS011;39735;51.432;5.482;2022-07-18T08:12:59;5.45;;;2.17;;
53833;SDS011;39735;51.432;5.482;2022-07-18T08:15:24;9.00;;;2.97;;
53833;SDS011;39735;51.432;5.482;2022-07-18T08:17:50;16.15;;;2.45;;
53833;SDS011;39735;51.432;5.482;2022-07-18T08:20:15;10.88;;;3.13;;
53833;SDS011;39735;51.432;5.482;2022-07-18T08:23:00;7.40;;;2.35;;
53833;SDS011;39735;51.432;5.482;2022-07-18T08:25:31;8.55;;;2.65;;
53833;SDS011;39735;51.432;5.482;2022-07-18T08:27:58;27.98;;;3.25;;
53833;SDS011;39735;51.432;5.482;2022-07-18T08:30:24;13.70;;;2.22;;
53833;SDS011;39735;51.432;5.482;2022-07-18T08:32:49;17.48;;;2.38;;
53833;SDS011;39735;51.432;5.482;2022-07-18T08:35:14;24.17;;;3.40;;
53833;SDS011;39735;51.432;5.482;2022-07-18T08:37:40;2.53;;;2.03;;
53833;SDS011;39735;51.432;5.482;2022-07-18T08:40:06;13.63;;;2.55;;
53833;SDS011;39735;51.432;5.482;2022-07-18T08:42:33;6.88;;;2.72;;
53833;SDS011;39735;51.432;5.482;2022-07-18T08:44:59;4.07;;;2.58;;
53833;SDS011;39735;51.432;5.482;2022-07-18T08:47:24;6.55;;;1.63;;
53833;SDS011;39735;51.432;5.482;2022-07-18T08:49:51;8.27;;;2.05;;
53833;SDS011;39735;51.432;5.482;2022-07-18T08:52:17;20.83;;;1.88;;
53833;SDS011;39735;51.432;5.482;2022-07-18T08:54:44;7.25;;;1.73;;
53833;SDS011;39735;51.432;5.482;2022-07-18T08:57:10;9.02;;;4.15;;
53833;SDS011;39735;51.432;5.482;2022-07-18T08:59:35;12.88;;;3.05;;
53833;SDS011;39735;51.432;5.482;2022-07-18T09:02:00;8.20;;;2.03;;
53833;SDS011;39735;51.432;5.482;2022-07-18T09:07:01;24.33;;;2.35;;
53833;SDS011;39735;51.432;5.482;2022-07-18T09:09:28;11.05;;;2.33;;
53833;SDS011;39735;51.432;5.482;2022-07-18T09:12:01;6.18;;;1.55;;
53833;SDS011;39735;51.432;5.482;2022-07-18T09:14:40;19.23;;;2.45;;
53833;SDS011;39735;51.432;5.482;2022-07-18T09:22:36;5.80;;;1.52;;
53833;SDS011;39735;51.432;5.482;2022-07-18T09:25:09;12.82;;;2.13;;
53833;SDS011;39735;51.432;5.482;2022-07-18T09:27:37;2.30;;;1.75;;
53833;SDS011;39735;51.432;5.482;2022-07-18T09:30:22;15.82;;;3.97;;
53833;SDS011;39735;51.432;5.482;2022-07-18T09:35:29;5.70;;;2.08;;
53833;SDS011;39735;51.432;5.482;2022-07-18T09:40:29;4.53;;;2.33;;
53833;SDS011;39735;51.432;5.482;2022-07-18T09:42:58;3.03;;;1.50;;
53833;SDS011;39735;51.432;5.482;2022-07-18T09:45:26;12.85;;;1.83;;
53833;SDS011;39735;51.432;5.482;2022-07-18T09:47:59;7.85;;;2.15;;
53833;SDS011;39735;51.432;5.482;2022-07-18T09:50:36;17.40;;;2.30;;
53833;SDS011;39735;51.432;5.482;2022-07-18T09:56:14;1.80;;;1.70;;
53833;SDS011;39735;51.432;5.482;2022-07-18T09:58:52;26.35;;;2.05;;
53833;SDS011;39735;51.432;5.482;2022-07-18T10:01:18;11.93;;;1.77;;
53833;SDS011;39735;51.432;5.482;2022-07-18T10:03:44;3.67;;;1.55;;
53833;SDS011;39735;51.432;5.482;2022-07-18T10:06:09;7.18;;;1.58;;
53833;SDS011;39735;51.432;5.482;2022-07-18T10:08:35;5.78;;;3.25;;
53833;SDS011;39735;51.432;5.482;2022-07-18T10:11:01;4.30;;;2.67;;
53833;SDS011;39735;51.432;5.482;2022-07-18T10:13:29;12.25;;;1.90;;
53833;SDS011;39735;51.432;5.482;2022-07-18T10:15:56;11.85;;;1.80;;
53833;SDS011;39735;51.432;5.482;2022-07-18T10:18:23;1.88;;;1.73;;
53833;SDS011;39735;51.432;5.482;2022-07-18T10:23:48;9.95;;;1.90;;
53833;SDS011;39735;51.432;5.482;2022-07-18T10:33:53;9.63;;;1.40;;
53833;SDS011;39735;51.432;5.482;2022-07-18T10:36:23;8.95;;;2.13;;
53833;SDS011;39735;51.432;5.482;2022-07-18T10:57:31;13.45;;;1.73;;
53833;SDS011;39735;51.432;5.482;2022-07-18T10:59:58;2.47;;;1.42;;
53833;SDS011;39735;51.432;5.482;2022-07-18T11:02:32;8.40;;;5.05;;
53833;SDS011;39735;51.432;5.482;2022-07-18T11:05:00;6.65;;;2.10;;
53833;SDS011;39735;51.432;5.482;2022-07-18T11:07:25;5.20;;;1.70;;
53833;SDS011;39735;51.432;5.482;2022-07-18T11:09:51;12.13;;;2.30;;
53833;SDS011;39735;51.432;5.482;2022-07-18T11:12:20;5.22;;;1.55;;
53833;SDS011;39735;51.432;5.482;2022-07-18T11:20:26;46.92;;;2.63;;
53833;SDS011;39735;51.432;5.482;2022-07-18T11:22:52;20.20;;;4.05;;
53833;SDS011;39735;51.432;5.482;2022-07-18T11:25:17;1.80;;;1.45;;
53833;SDS011;39735;51.432;5.482;2022-07-18T11:27:43;8.35;;;1.90;;
53833;SDS011;39735;51.432;5.482;2022-07-18T11:30:10;3.45;;;1.48;;
53833;SDS011;39735;51.432;5.482;2022-07-18T11:32:40;10.93;;;1.58;;
53833;SDS011;39735;51.432;5.482;2022-07-18T11:35:06;4.55;;;1.48;;
53833;SDS011;39735;51.432;5.482;2022-07-18T11:37:33;7.43;;;1.83;;
53833;SDS011;39735;51.432;5.482;2022-07-18T11:40:08;6.25;;;1.80;;
53833;SDS011;39735;51.432;5.482;2022-07-18T11:42:35;4.38;;;2.30;;
53833;SDS011;39735;51.432;5.482;2022-07-18T11:45:01;8.55;;;1.83;;
53833;SDS011;39735;51.432;5.482;2022-07-18T11:47:27;3.20;;;1.42;;
53833;SDS011;39735;51.432;5.482;2022-07-18T11:49:53;7.22;;;1.77;;
53833;SDS011;39735;51.432;5.482;2022-07-18T11:52:20;10.65;;;1.90;;
53833;SDS011;39735;51.432;5.482;2022-07-18T11:54:46;4.03;;;1.88;;
53833;SDS011;39735;51.432;5.482;2022-07-18T11:57:11;2.38;;;2.05;;
53833;SDS011;39735;51.432;5.482;2022-07-18T11:59:38;7.07;;;1.85;;
53833;SDS011;39735;51.432;5.482;2022-07-18T12:02:05;3.55;;;1.98;;
53833;SDS011;39735;51.432;5.482;2022-07-18T12:04:30;10.13;;;3.47;;
53833;SDS011;39735;51.432;5.482;2022-07-18T12:09:50;2.65;;;1.67;;
53833;SDS011;39735;51.432;5.482;2022-07-18T12:12:17;6.35;;;1.90;;
53833;SDS011;39735;51.432;5.482;2022-07-18T12:14:58;8.60;;;1.98;;
53833;SDS011;39735;51.432;5.482;2022-07-18T12:17:25;7.00;;;1.95;;
53833;SDS011;39735;51.432;5.482;2022-07-18T12:19:51;7.90;;;3.47;;
53833;SDS011;39735;51.432;5.482;2022-07-18T12:22:16;1.85;;;1.55;;
53833;SDS011;39735;51.432;5.482;2022-07-18T12:24:52;5.97;;;1.90;;
53833;SDS011;39735;51.432;5.482;2022-07-18T12:27:25;14.88;;;1.98;;
53833;SDS011;39735;51.432;5.482;2022-07-18T12:32:36;13.32;;;2.40;;
53833;SDS011;39735;51.432;5.482;2022-07-18T12:35:13;1.38;;;1.38;;
53833;SDS011;39735;51.432;5.482;2022-07-18T12:37:41;12.43;;;1.75;;
53833;SDS011;39735;51.432;5.482;2022-07-18T12:40:08;37.70;;;3.33;;
53833;SDS011;39735;51.432;5.482;2022-07-18T12:42:38;11.70;;;2.00;;
53833;SDS011;39735;51.432;5.482;2022-07-18T12:45:05;14.38;;;2.90;;
53833;SDS011;39735;51.432;5.482;2022-07-18T12:47:31;9.02;;;1.65;;
53833;SDS011;39735;51.432;5.482;2022-07-18T12:49:57;1.98;;;1.88;;
53833;SDS011;39735;51.432;5.482;2022-07-18T12:52:23;4.47;;;1.58;;
53833;SDS011;39735;51.432;5.482;2022-07-18T12:54:48;3.03;;;1.88;;
53833;SDS011;39735;51.432;5.482;2022-07-18T12:57:14;2.28;;;1.58;;
53833;SDS011;39735;51.432;5.482;2022-07-18T12:59:39;11.00;;;2.33;;
53833;SDS011;39735;51.432;5.482;2022-07-18T13:02:06;3.55;;;1.80;;
53833;SDS011;39735;51.432;5.482;2022-07-18T13:04:31;13.27;;;1.92;;
53833;SDS011;39735;51.432;5.482;2022-07-18T13:06:57;12.07;;;3.53;;
53833;SDS011;39735;51.432;5.482;2022-07-18T13:09:22;9.82;;;2.03;;
53833;SDS011;39735;51.432;5.482;2022-07-18T13:11:48;9.55;;;1.77;;
53833;SDS011;39735;51.432;5.482;2022-07-18T13:14:14;47.65;;;2.60;;
53833;SDS011;39735;51.432;5.482;2022-07-18T13:16:41;7.88;;;1.58;;
53833;SDS011;39735;51.432;5.482;2022-07-18T13:19:08;6.13;;;1.75;;
53833;SDS011;39735;51.432;5.482;2022-07-18T13:21:34;8.13;;;1.90;;
53833;SDS011;39735;51.432;5.482;2022-07-18T13:23:59;12.73;;;2.15;;
53833;SDS011;39735;51.432;5.482;2022-07-18T13:26:24;1.58;;;1.48;;
53833;SDS011;39735;51.432;5.482;2022-07-18T13:28:50;7.15;;;1.83;;
53833;SDS011;39735;51.432;5.482;2022-07-18T13:31:15;13.88;;;2.10;;
53833;SDS011;39735;51.432;5.482;2022-07-18T13:33:41;1.83;;;1.58;;
53833;SDS011;39735;51.432;5.482;2022-07-18T13:36:06;17.42;;;1.83;;
53833;SDS011;39735;51.432;5.482;2022-07-18T13:38:31;8.63;;;1.90;;
53833;SDS011;39735;51.432;5.482;2022-07-18T13:40:57;11.60;;;2.55;;
53833;SDS011;39735;51.432;5.482;2022-07-18T13:43:22;3.97;;;2.03;;
53833;SDS011;39735;51.432;5.482;2022-07-18T13:45:48;3.05;;;1.55;;
53833;SDS011;39735;51.432;5.482;2022-07-18T13:48:13;6.07;;;2.17;;
53833;SDS011;39735;51.432;5.482;2022-07-18T13:50:38;10.52;;;2.47;;
53833;SDS011;39735;51.432;5.482;2022-07-18T13:53:04;1.17;;;1.08;;
53833;SDS011;39735;51.432;5.482;2022-07-18T13:55:29;2.30;;;1.73;;
53833;SDS011;39735;51.432;5.482;2022-07-18T13:57:55;9.68;;;2.13;;
53833;SDS011;39735;51.432;5.482;2022-07-18T14:00:20;10.57;;;2.45;;
53833;SDS011;39735;51.432;5.482;2022-07-18T14:02:46;10.45;;;1.70;;
53833;SDS011;39735;51.432;5.482;2022-07-18T14:05:11;18.20;;;1.92;;
53833;SDS011;39735;51.432;5.482;2022-07-18T14:07:36;23.83;;;2.20;;
53833;SDS011;39735;51.432;5.482;2022-07-18T14:10:02;4.57;;;1.67;;
53833;SDS011;39735;51.432;5.482;2022-07-18T14:12:27;5.05;;;2.72;;
53833;SDS011;39735;51.432;5.482;2022-07-18T14:14:53;14.50;;;1.90;;
53833;SDS011;39735;51.432;5.482;2022-07-18T14:17:18;6.80;;;2.35;;
53833;SDS011;39735;51.432;5.482;2022-07-18T14:19:43;5.00;;;1.92;;
53833;SDS011;39735;51.432;5.482;2022-07-18T14:22:09;4.32;;;1.95;;
53833;SDS011;39735;51.432;5.482;2022-07-18T14:24:35;17.48;;;4.03;;
53833;SDS011;39735;51.432;5.482;2022-07-18T14:27:00;8.50;;;2.28;;
53833;SDS011;39735;51.432;5.482;2022-07-18T14:29:26;2.60;;;2.13;;
53833;SDS011;39735;51.432;5.482;2022-07-18T14:31:51;20.40;;;2.20;;
53833;SDS011;39735;51.432;5.482;2022-07-18T14:34:16;1.77;;;1.20;;
53833;SDS011;39735;51.432;5.482;2022-07-18T14:36:42;2.58;;;1.67;;
53833;SDS011;39735;51.432;5.482;2022-07-18T14:39:07;11.40;;;1.48;;
53833;SDS011;39735;51.432;5.482;2022-07-18T14:41:32;2.50;;;1.98;;
53833;SDS011;39735;51.432;5.482;2022-07-18T14:43:59;9.10;;;2.22;;
53833;SDS011;39735;51.432;5.482;2022-07-18T14:46:24;58.83;;;3.58;;
53833;SDS011;39735;51.432;5.482;2022-07-18T14:48:50;14.23;;;1.60;;
53833;SDS011;39735;51.432;5.482;2022-07-18T14:51:17;21.55;;;1.77;;
53833;SDS011;39735;51.432;5.482;2022-07-18T14:53:43;1.50;;;1.40;;
53833;SDS011;39735;51.432;5.482;2022-07-18T14:56:08;2.15;;;1.55;;
53833;SDS011;39735;51.432;5.482;2022-07-18T14:58:34;2.35;;;1.80;;
53833;SDS011;39735;51.432;5.482;2022-07-18T15:00:59;17.02;;;1.55;;
53833;SDS011;39735;51.432;5.482;2022-07-18T15:03:24;2.55;;;1.52;;
53833;SDS011;39735;51.432;5.482;2022-07-18T15:05:50;9.30;;;1.75;;
53833;SDS011;39735;51.432;5.482;2022-07-18T15:08:15;9.05;;;1.08;;
53833;SDS011;39735;51.432;5.482;2022-07-18T15:10:40;18.55;;;2.10;;
53833;SDS011;39735;51.432;5.482;2022-07-18T15:13:06;4.63;;;1.40;;
53833;SDS011;39735;51.432;5.482;2022-07-18T15:15:31;6.63;;;1.63;;
53833;SDS011;39735;51.432;5.482;2022-07-18T15:17:57;11.88;;;4.32;;
53833;SDS011;39735;51.432;5.482;2022-07-18T15:20:23;1.70;;;1.27;;
53833;SDS011;39735;51.432;5.482;2022-07-18T15:22:49;3.53;;;2.15;;
53833;SDS011;39735;51.432;5.482;2022-07-18T15:25:15;9.50;;;1.50;;
53833;SDS011;39735;51.432;5.482;2022-07-18T15:27:40;8.32;;;2.03;;
53833;SDS011;39735;51.432;5.482;2022-07-18T15:30:06;3.60;;;1.45;;
53833;SDS011;39735;51.432;5.482;2022-07-18T15:32:31;19.20;;;2.25;;